Dilley, TX (78017)

12:06 AM CDT on July 29, 2014 (GMT -0500)
Cotulla-La Salle County (KCOT) Elev 476 ft | 28.46 °N, 99.22 °W | Change Station

Current weather conditions updated 13 minutes ago

Clear
Clear
86 °F
Feels Like 87 °F
N
10
Wind Variable Wind from SSE

Today is forecast to be Warmer than yesterday.

Today
High -- | Low -- °F
--% Chance of Precip.
Yesterday
High -- | Low -- °F
Precip. -- in
6:56 AM 8:29 PM
Waxing Crescent, 5% visible
Pressure 30.02 in
Visibility 10.0 miles
Clouds Clear
Heat Index 87 °F
Dew Point 63 °F
Humidity 46%
Rainfall 0.00 in
Snow Depth Not available.
UV 0 out of 12
Pollen 5.60 out of 12
Air Quality Not available.
Flu Activity Not available.
METAR KCOT 290453Z AUTO 15009KT 10SM CLR 30/17 A3005 RMK AO2 SLP166 T03000172

More Conditions Fewer Conditions

Pressure 30.02 in
Visibility 10.0 miles
Clouds Clear
Heat Index 87 °F
Dew Point 63 °F
Humidity 46%
Rainfall 0.00 in
Snow Depth Not available.
UV 0 out of 12
Pollen 5.60 out of 12
Air Quality Not available.
Flu Activity Not available.
METAR KCOT 290453Z AUTO 15009KT 10SM CLR 30/17 A3005 RMK AO2 SLP166 T03000172

More Conditions Fewer Conditions

10-Day Weather Forecast

Almanac

Astronomy

Jul. 29, 2014 Rise Set
Actual Time 6:56 AM CDT 8:29 PM CDT
Civil Twilight 6:30 AM CDT 8:55 PM CDT
Nautical Twilight 6:00 AM CDT 9:26 PM CDT
Astronomical Twilight 5:27 AM CDT 9:58 PM CDT
Moon 9:17 AM CDT 10:01 PM CDT
Length of Visible Light 14h 24m
Length of Day
13h 33m
Tomorrow will be 1m 13s shorter.
Waxing Crescent, 5% of the Moon is Illuminated
Today
Waxing Crescent
Aug 3
First Quarter
Aug 10
Full
Aug 17
Last Quarter
Aug 25
New

Today's Extremes

State Highs State Lows

Community

WunderPhotos

Upload Photos

1,738,638 photos uploaded!

Nearby

Snow Depth

Station Depth Elevation
No new snow has been reported.

Earthquake Activity

City Distance Mag. Time & Date
No recent earthquake activity has been reported nearby.
Minimum magnitude displayed is 2.5.

Coastal Water Temperatures

Place Temperature
No Stations Reporting

Nearby Weather Stations

Station Location Temp. Heat Index Dew Point Humidity Wind Precip. Elev Updated Type
MesoWest DILLEY , Dilley, TX 93 °F 89 °F - - North  at  - 0.00 in / hr 562 ft 10:10 PM CDT MADIS
MesoWest GARNDL , Cotulla, TX 91 °F 87 °F - - North  at  - 0.00 in / hr 457 ft 8:55 PM CDT MADIS

Show More Stations Show Fewer Stations